createdAt,value
2022-10-19T00:02:53.477Z,10.65
2022-10-19T00:07:38.595Z,10.98
2022-10-19T00:12:26.567Z,10.48
2022-10-19T00:17:11.615Z,10.90
2022-10-19T00:21:57.379Z,12.00
2022-10-19T00:26:42.845Z,10.15
2022-10-19T00:31:30.922Z,10.95
2022-10-19T00:36:19.854Z,11.63
2022-10-19T00:41:06.200Z,10.85
2022-10-19T00:45:51.317Z,11.38
2022-10-19T00:50:39.652Z,10.82
2022-10-19T00:55:24.747Z,10.32
2022-10-19T01:00:12.026Z,11.57
2022-10-19T01:04:57.861Z,11.45
2022-10-19T01:09:45.898Z,11.48
2022-10-19T01:14:41.341Z,11.48
2022-10-19T01:19:45.550Z,12.15
2022-10-19T01:30:05.893Z,12.48
2022-10-19T01:34:55.439Z,11.85
2022-10-19T01:39:49.993Z,12.07
2022-10-19T01:44:42.338Z,12.00
2022-10-19T01:49:37.046Z,12.05
2022-10-19T01:54:24.455Z,12.43
2022-10-19T01:59:12.370Z,13.02
2022-10-19T02:03:58.047Z,12.38
2022-10-19T02:08:49.239Z,11.75
2022-10-19T02:13:36.218Z,11.40
2022-10-19T02:18:27.215Z,12.02
2022-10-19T02:23:12.937Z,12.20
2022-10-19T02:28:01.252Z,12.20
2022-10-19T02:32:47.108Z,12.60
2022-10-19T02:37:32.528Z,12.13
2022-10-19T02:42:21.629Z,12.20
2022-10-19T02:47:13.885Z,12.48
2022-10-19T02:52:02.872Z,12.23
2022-10-19T02:56:48.162Z,13.10
2022-10-19T03:01:33.298Z,12.82
2022-10-19T03:06:21.202Z,12.60
2022-10-19T03:11:06.227Z,12.25
2022-10-19T03:15:51.972Z,12.48
2022-10-19T03:20:37.014Z,12.82
2022-10-19T03:25:24.909Z,12.55
2022-10-19T03:30:11.082Z,12.32
2022-10-19T03:34:56.397Z,13.00
2022-10-19T03:39:41.404Z,12.75
2022-10-19T03:44:29.358Z,12.85
2022-10-19T03:49:14.964Z,12.02
2022-10-19T03:54:02.118Z,12.88
2022-10-19T03:58:49.631Z,12.43
2022-10-19T04:03:37.700Z,12.55
2022-10-19T04:08:22.732Z,13.93
2022-10-19T04:13:08.049Z,13.43
2022-10-19T04:17:53.050Z,13.25
2022-10-19T04:22:40.983Z,12.35
2022-10-19T04:27:26.010Z,12.52
2022-10-19T04:32:11.326Z,12.55
2022-10-19T04:36:59.480Z,13.30
2022-10-19T04:41:47.571Z,13.15
2022-10-19T04:46:33.339Z,12.82
2022-10-19T04:51:20.152Z,12.52
2022-10-19T04:56:09.127Z,12.52
2022-10-19T05:00:57.177Z,13.20
2022-10-19T05:05:42.171Z,12.60
2022-10-19T05:10:27.611Z,13.40
2022-10-19T05:15:13.750Z,13.05
2022-10-19T05:20:01.688Z,12.50
2022-10-19T05:24:46.904Z,12.32
2022-10-19T05:29:34.027Z,13.18
2022-10-19T05:34:19.110Z,13.30
2022-10-19T05:39:09.449Z,13.13
2022-10-19T05:43:56.880Z,13.35
2022-10-19T05:48:43.096Z,13.55
2022-10-19T05:53:28.176Z,14.25
2022-10-19T05:58:16.095Z,13.07
2022-10-19T06:03:01.108Z,13.20
2022-10-19T06:07:46.425Z,12.35
2022-10-19T06:12:31.711Z,12.95
2022-10-19T06:17:19.810Z,13.15
2022-10-19T06:22:05.069Z,12.35
2022-10-19T06:26:50.382Z,12.27
2022-10-19T06:31:37.409Z,12.25
2022-10-19T06:36:27.557Z,12.38
2022-10-19T06:41:13.109Z,12.60
2022-10-19T06:45:58.488Z,12.88
2022-10-19T06:50:43.638Z,12.88
2022-10-19T06:55:31.596Z,12.65
2022-10-19T07:00:17.798Z,12.07
2022-10-19T07:05:06.898Z,12.57
2022-10-19T07:09:53.692Z,12.80
2022-10-19T07:14:41.591Z,13.10
2022-10-19T07:19:29.468Z,12.13
2022-10-19T07:24:15.515Z,12.65
2022-10-19T07:29:01.194Z,12.30
2022-10-19T07:33:49.667Z,12.25
2022-10-19T07:38:35.497Z,12.18
2022-10-19T07:43:20.816Z,11.98
2022-10-19T07:48:05.895Z,11.27
2022-10-19T07:52:54.684Z,10.93
2022-10-19T07:57:41.585Z,11.18
2022-10-19T08:02:39.405Z,11.13
2022-10-19T08:07:36.273Z,11.23
2022-10-19T08:12:23.969Z,10.80
2022-10-19T08:17:10.146Z,10.10
2022-10-19T08:21:55.200Z,10.07
2022-10-19T08:26:41.862Z,12.98
2022-10-19T08:31:29.847Z,10.07
2022-10-19T08:36:16.516Z,10.07
2022-10-19T08:41:07.470Z,9.50
2022-10-19T08:45:58.355Z,10.50
2022-10-19T08:50:48.140Z,9.35
2022-10-19T08:55:47.240Z,18.95
2022-10-19T09:00:41.985Z,10.15
2022-10-19T09:05:35.401Z,9.38
2022-10-19T09:10:27.543Z,9.15
2022-10-19T09:15:15.970Z,9.18
2022-10-19T09:20:04.674Z,9.30
2022-10-19T09:24:53.955Z,8.63
2022-10-19T09:29:47.502Z,8.80
2022-10-19T09:34:37.724Z,8.77
2022-10-19T09:39:25.692Z,9.50
2022-10-19T09:44:14.182Z,9.27
2022-10-19T09:49:03.383Z,9.55
2022-10-19T09:53:50.787Z,8.38
2022-10-19T09:58:41.355Z,9.13
2022-10-19T10:03:35.374Z,8.77
2022-10-19T10:08:45.270Z,8.40
2022-10-19T10:13:35.119Z,9.40
2022-10-19T10:18:28.960Z,8.75
2022-10-19T10:23:36.909Z,8.43
2022-10-19T10:28:27.145Z,8.43
2022-10-19T10:33:27.246Z,8.25
2022-10-19T10:38:30.690Z,8.57
2022-10-19T10:43:19.140Z,8.00
2022-10-19T10:48:18.427Z,9.10
2022-10-19T10:53:05.447Z,8.15
2022-10-19T10:57:57.420Z,8.20
2022-10-19T11:07:33.759Z,8.68
2022-10-19T11:12:23.059Z,8.10
2022-10-19T11:17:19.303Z,8.15
2022-10-19T11:22:13.286Z,8.40
2022-10-19T11:27:11.628Z,8.35
2022-10-19T11:31:58.281Z,8.63
2022-10-19T11:36:57.374Z,8.40
2022-10-19T11:41:51.633Z,8.13
2022-10-19T11:46:53.988Z,8.93
2022-10-19T11:51:51.935Z,8.30
2022-10-19T11:57:02.905Z,8.30
2022-10-19T12:02:00.751Z,7.95
2022-10-19T12:06:59.571Z,8.40
2022-10-19T12:12:00.563Z,8.20
2022-10-19T12:16:52.976Z,7.50
2022-10-19T12:21:45.636Z,7.97
2022-10-19T12:26:34.855Z,8.15
2022-10-19T12:31:25.982Z,7.63
2022-10-19T12:41:27.009Z,7.13
2022-10-19T12:46:24.278Z,8.20
2022-10-19T12:51:18.960Z,7.35
2022-10-19T12:56:05.417Z,6.93
2022-10-19T13:01:02.457Z,7.90
2022-10-19T13:05:59.350Z,6.60
2022-10-19T13:11:07.418Z,7.05
2022-10-19T13:15:55.065Z,7.40
2022-10-19T13:20:55.663Z,7.25
2022-10-19T13:25:41.670Z,7.88
2022-10-19T13:31:03.345Z,7.20
2022-10-19T13:36:09.881Z,7.32
2022-10-19T13:41:21.671Z,8.02
2022-10-19T13:46:15.479Z,7.47
2022-10-19T13:51:10.937Z,7.30
2022-10-19T13:56:22.843Z,7.25
2022-10-19T14:01:18.548Z,7.47
2022-10-19T14:06:18.646Z,7.57
2022-10-19T14:11:06.815Z,8.10
2022-10-19T14:15:56.958Z,7.70
2022-10-19T14:20:42.457Z,7.70
2022-10-19T14:25:33.023Z,7.70
2022-10-19T14:30:24.908Z,7.72
2022-10-19T14:35:23.225Z,7.43
2022-10-19T14:40:11.795Z,7.90
2022-10-19T14:45:04.708Z,8.75
2022-10-19T14:49:50.409Z,8.20
2022-10-19T14:54:40.861Z,9.10
2022-10-19T14:59:31.225Z,8.27
2022-10-19T15:04:22.117Z,8.82
2022-10-19T15:09:15.564Z,8.18
2022-10-19T15:14:14.931Z,8.45
2022-10-19T15:19:00.173Z,8.48
2022-10-19T15:23:49.543Z,9.13
2022-10-19T15:28:40.574Z,8.05
2022-10-19T15:33:27.103Z,10.20
2022-10-19T15:38:22.086Z,7.60
2022-10-19T15:43:39.106Z,7.63
2022-10-19T15:48:30.511Z,8.75
2022-10-19T15:53:15.569Z,8.85
2022-10-19T15:58:02.113Z,9.65
2022-10-19T16:02:49.779Z,9.15
2022-10-19T16:07:39.413Z,8.43
2022-10-19T16:12:24.970Z,8.48
2022-10-19T16:17:10.359Z,8.30
2022-10-19T16:21:58.038Z,8.75
2022-10-19T16:26:43.350Z,9.80
2022-10-19T16:31:28.630Z,9.65
2022-10-19T16:36:14.288Z,9.52
2022-10-19T16:41:03.031Z,9.48
2022-10-19T16:45:48.347Z,9.80
2022-10-19T16:50:33.457Z,9.35
2022-10-19T16:55:18.910Z,9.80
2022-10-19T17:00:10.501Z,10.15
2022-10-19T17:04:55.906Z,10.73
2022-10-19T17:09:42.152Z,9.77
2022-10-19T17:14:27.998Z,9.05
2022-10-19T17:19:16.028Z,8.85
2022-10-19T17:24:03.125Z,8.55
2022-10-19T17:28:49.423Z,8.07
2022-10-19T17:33:35.098Z,7.72
2022-10-19T17:38:22.752Z,7.75
2022-10-19T17:43:08.297Z,6.85
2022-10-19T17:47:53.305Z,7.70
2022-10-19T17:52:38.606Z,7.15
2022-10-19T17:57:26.413Z,7.22
2022-10-19T18:02:12.939Z,7.38
2022-10-19T18:06:57.993Z,7.80
2022-10-19T18:11:45.794Z,7.07
2022-10-19T18:16:35.301Z,6.78
2022-10-19T18:21:22.836Z,7.25
2022-10-19T18:26:10.125Z,7.63
2022-10-19T18:30:55.489Z,7.90
2022-10-19T18:35:43.796Z,7.90
2022-10-19T18:40:29.263Z,7.93
2022-10-19T18:45:14.488Z,7.65
2022-10-19T18:49:59.829Z,8.00
2022-10-19T18:54:47.500Z,7.90
2022-10-19T18:59:32.860Z,8.40
2022-10-19T19:04:17.904Z,8.00
2022-10-19T19:09:05.111Z,8.32
2022-10-19T19:13:55.878Z,7.68
2022-10-19T19:18:41.496Z,7.72
2022-10-19T19:23:26.865Z,8.20
2022-10-19T19:28:12.192Z,7.95
2022-10-19T19:33:00.470Z,8.35
2022-10-19T21:10:41.227Z,8.38
2022-10-19T21:15:28.076Z,8.57
2022-10-19T21:20:13.450Z,7.60
2022-10-19T21:24:58.815Z,7.00
2022-10-19T21:29:46.544Z,7.70
2022-10-19T21:34:33.886Z,6.82
2022-10-19T21:39:19.430Z,6.72
2022-10-19T21:44:04.860Z,6.78
2022-10-19T21:48:53.630Z,7.43
2022-10-19T21:53:38.913Z,6.82
2022-10-19T21:58:24.639Z,7.43
2022-10-19T22:03:10.054Z,7.60
2022-10-19T22:07:57.991Z,7.50
2022-10-19T22:12:43.094Z,6.63
2022-10-19T22:17:28.423Z,6.45
2022-10-19T22:22:13.463Z,6.95
2022-10-19T22:27:01.469Z,6.82
2022-10-19T22:31:47.343Z,7.18
2022-10-19T22:36:32.692Z,7.03
2022-10-19T22:41:19.275Z,7.20
2022-10-19T22:46:07.197Z,7.22
2022-10-19T22:50:55.660Z,6.57
2022-10-19T22:55:41.295Z,6.40
2022-10-19T23:00:26.661Z,7.03
2022-10-19T23:05:14.787Z,6.55
2022-10-19T23:09:59.791Z,6.20
2022-10-19T23:14:45.109Z,6.78
2022-10-19T23:19:30.130Z,6.28
2022-10-19T23:24:18.021Z,5.93
2022-10-19T23:29:03.083Z,4.97
2022-10-19T23:33:49.299Z,4.82
2022-10-19T23:38:34.572Z,4.88
2022-10-19T23:43:22.641Z,5.20
2022-10-19T23:48:08.101Z,4.55
2022-10-19T23:52:53.413Z,4.07
2022-10-19T23:57:38.942Z,3.78
